createdAt,value
2022-07-28T00:01:48.630Z,0.10
2022-07-28T00:04:20.138Z,0.10
2022-07-28T00:06:54.588Z,0.20
2022-07-28T00:12:34.674Z,0.60
2022-07-28T00:15:06.299Z,0.40
2022-07-28T00:17:37.259Z,0.20
2022-07-28T00:20:08.933Z,0.30
2022-07-28T00:22:45.752Z,0.40
2022-07-28T00:25:16.320Z,0.40
2022-07-28T00:27:53.002Z,0.30
2022-07-28T00:30:23.075Z,0.37
2022-07-28T00:32:55.545Z,0.40
2022-07-28T00:35:30.814Z,0.37
2022-07-28T00:37:57.762Z,0.47
2022-07-28T00:40:29.676Z,0.40
2022-07-28T00:43:00.231Z,0.40
2022-07-28T00:45:33.236Z,0.30
2022-07-28T00:48:06.210Z,0.30
2022-07-28T00:50:40.802Z,0.30
2022-07-28T00:53:11.719Z,0.30
2022-07-28T00:56:03.388Z,0.20
2022-07-28T00:58:14.404Z,0.30
2022-07-28T01:00:48.019Z,0.20
2022-07-28T01:03:18.245Z,0.40
2022-07-28T01:05:56.871Z,0.40
2022-07-28T01:09:02.337Z,0.20
2022-07-28T01:11:47.037Z,0.30
2022-07-28T01:14:28.850Z,0.30
2022-07-28T01:17:28.425Z,0.30
2022-07-28T01:20:16.459Z,0.33
2022-07-28T01:23:11.622Z,0.33
2022-07-28T01:29:30.371Z,0.37
2022-07-28T01:32:08.503Z,0.40
2022-07-28T01:37:59.982Z,0.20
2022-07-28T01:40:31.913Z,0.50
2022-07-28T01:43:02.482Z,0.20
2022-07-28T01:45:33.942Z,0.30
2022-07-28T01:48:04.833Z,0.20
2022-07-28T01:50:38.871Z,0.13
2022-07-28T01:53:12.008Z,0.20
2022-07-28T01:59:08.348Z,0.13
2022-07-28T02:02:13.377Z,0.10
2022-07-28T02:04:58.254Z,0.10
2022-07-28T02:11:59.371Z,0.30
2022-07-28T02:14:43.491Z,0.13
2022-07-28T02:24:11.873Z,0.20
2022-07-28T02:29:52.151Z,0.10
2022-07-28T02:45:43.820Z,0.10
2022-07-28T02:54:53.686Z,0.10
2022-07-28T03:07:23.067Z,0.10
2022-07-28T03:13:09.068Z,0.20
2022-07-28T03:22:06.179Z,0.20
2022-07-28T03:24:42.315Z,0.20
2022-07-28T03:27:33.572Z,0.20
2022-07-28T03:30:06.659Z,0.20
2022-07-28T03:32:38.671Z,0.10
2022-07-28T03:35:09.418Z,0.10
2022-07-28T03:37:58.472Z,0.17
2022-07-28T03:40:32.753Z,0.20
2022-07-28T03:43:05.091Z,0.40
2022-07-28T03:45:36.474Z,0.10
2022-07-28T03:48:10.854Z,0.20
2022-07-28T03:50:43.674Z,0.10
2022-07-28T03:53:19.205Z,0.20
2022-07-28T03:55:51.311Z,0.10
2022-07-28T03:58:22.592Z,0.20
2022-07-28T04:00:54.533Z,0.20
2022-07-28T04:03:42.430Z,0.20
2022-07-28T04:05:57.837Z,0.20
2022-07-28T04:08:28.420Z,0.10
2022-07-28T04:10:59.526Z,0.10
2022-07-28T04:13:34.782Z,0.10
2022-07-28T04:16:11.931Z,0.20
2022-07-28T04:18:43.223Z,0.10
2022-07-28T04:21:13.454Z,0.20
2022-07-28T04:23:43.452Z,0.10
2022-07-28T04:26:13.528Z,0.00
2022-07-28T04:28:44.964Z,0.10
2022-07-28T04:31:14.916Z,0.10
2022-07-28T04:33:45.504Z,0.10
2022-07-28T04:36:18.147Z,0.10
2022-07-28T04:38:48.231Z,0.10
2022-07-28T04:41:18.240Z,0.20
2022-07-28T04:43:49.039Z,0.10
2022-07-28T04:46:20.918Z,0.20
2022-07-28T04:48:51.268Z,0.10
2022-07-28T04:51:22.890Z,0.10
2022-07-28T04:53:54.265Z,0.10
2022-07-28T04:56:24.875Z,0.10
2022-07-28T04:58:57.167Z,0.13
2022-07-28T05:01:27.249Z,0.17
2022-07-28T05:03:58.899Z,0.10
2022-07-28T05:06:29.411Z,0.10
2022-07-28T05:08:59.923Z,0.10
2022-07-28T05:11:31.260Z,0.20
2022-07-28T05:14:01.500Z,0.10
2022-07-28T05:16:33.196Z,0.10
2022-07-28T05:19:06.047Z,0.10
2022-07-28T05:21:36.714Z,0.10
2022-07-28T05:24:07.439Z,0.10
2022-07-28T05:26:41.282Z,0.10
2022-07-28T05:29:12.606Z,0.10
2022-07-28T05:31:43.698Z,0.20
2022-07-28T05:34:15.350Z,0.10
2022-07-28T05:36:46.743Z,0.10
2022-07-28T05:39:17.613Z,0.10
2022-07-28T05:41:47.610Z,0.10
2022-07-28T05:44:17.894Z,0.10
2022-07-28T05:46:48.357Z,0.13
2022-07-28T05:49:18.390Z,0.10
2022-07-28T05:51:48.467Z,0.10
2022-07-28T05:54:18.443Z,0.10
2022-07-28T05:56:50.412Z,0.10
2022-07-28T05:59:21.007Z,0.10
2022-07-28T06:01:51.272Z,0.10
2022-07-28T06:04:27.170Z,0.10
2022-07-28T06:06:55.082Z,0.10
2022-07-28T06:09:25.245Z,0.20
2022-07-28T06:11:55.654Z,0.20
2022-07-28T06:14:26.078Z,0.05
2022-07-28T06:16:58.188Z,0.20
2022-07-28T06:19:28.252Z,0.10
2022-07-28T06:21:58.307Z,0.20
2022-07-28T06:24:28.691Z,0.17
2022-07-28T06:26:58.795Z,0.20
2022-07-28T06:29:28.981Z,0.10
2022-07-28T06:32:02.176Z,0.20
2022-07-28T06:34:33.007Z,0.17
2022-07-28T06:37:02.934Z,0.10
2022-07-28T06:39:33.629Z,0.10
2022-07-28T06:42:03.645Z,0.10
2022-07-28T06:44:57.455Z,0.20
2022-07-28T06:47:06.402Z,0.20
2022-07-28T06:49:38.536Z,0.10
2022-07-28T06:52:11.014Z,0.10
2022-07-28T06:54:48.913Z,0.10
2022-07-28T06:57:17.863Z,0.10
2022-07-28T06:59:48.714Z,0.10
2022-07-28T07:02:19.328Z,0.10
2022-07-28T07:04:51.188Z,0.10
2022-07-28T07:07:21.331Z,0.20
2022-07-28T07:09:52.777Z,0.10
2022-07-28T07:12:26.090Z,0.10
2022-07-28T07:14:56.120Z,0.20
2022-07-28T07:17:26.148Z,0.10
2022-07-28T07:19:56.135Z,0.13
2022-07-28T07:22:26.220Z,0.10
2022-07-28T07:24:57.650Z,0.10
2022-07-28T07:27:27.601Z,0.10
2022-07-28T07:29:57.725Z,0.10
2022-07-28T07:32:28.089Z,0.20
2022-07-28T07:34:58.309Z,0.20
2022-07-28T07:37:28.771Z,0.10
2022-07-28T07:39:59.073Z,0.17
2022-07-28T07:42:29.562Z,0.20
2022-07-28T07:44:59.817Z,0.20
2022-07-28T07:47:31.436Z,0.10
2022-07-28T07:50:04.113Z,0.10
2022-07-28T07:52:34.570Z,0.10
2022-07-28T07:55:08.651Z,0.20
2022-07-28T07:57:39.344Z,0.13
2022-07-28T08:00:28.979Z,0.16
2022-07-28T08:02:44.897Z,0.10
2022-07-28T08:05:14.752Z,0.20
2022-07-28T08:07:45.107Z,0.20
2022-07-28T08:10:20.132Z,0.10
2022-07-28T08:12:52.486Z,0.13
2022-07-28T08:15:23.689Z,0.17
2022-07-28T08:17:54.733Z,0.20
2022-07-28T08:20:24.984Z,0.20
2022-07-28T08:22:56.953Z,0.10
2022-07-28T08:25:30.219Z,0.20
2022-07-28T08:28:00.282Z,0.10
2022-07-28T08:30:32.986Z,0.13
2022-07-28T08:33:03.389Z,0.20
2022-07-28T08:35:35.329Z,0.20
2022-07-28T08:38:09.353Z,0.10
2022-07-28T08:40:40.727Z,0.10
2022-07-28T08:43:19.785Z,0.20
2022-07-28T08:45:53.706Z,0.20
2022-07-28T08:48:24.449Z,0.10
2022-07-28T08:50:54.638Z,0.10
2022-07-28T08:53:24.816Z,0.20
2022-07-28T08:55:58.096Z,0.20
2022-07-28T09:01:01.954Z,0.10
2022-07-28T09:03:32.235Z,0.20
2022-07-28T09:06:02.731Z,0.20
2022-07-28T09:08:34.364Z,0.20
2022-07-28T09:11:06.413Z,0.17
2022-07-28T09:13:38.257Z,0.30
2022-07-28T09:16:09.778Z,0.10
2022-07-28T09:18:41.049Z,0.20
2022-07-28T09:21:21.028Z,0.20
2022-07-28T09:24:02.344Z,0.10
2022-07-28T09:26:37.026Z,0.20
2022-07-28T09:29:48.708Z,0.20
2022-07-28T09:35:24.880Z,0.20
2022-07-28T09:38:10.133Z,0.10
2022-07-28T09:40:52.417Z,0.20
2022-07-28T09:46:22.554Z,0.20
2022-07-28T09:49:01.664Z,0.10
2022-07-28T09:51:49.009Z,0.20
2022-07-28T09:54:30.146Z,0.20
2022-07-28T10:03:05.744Z,0.10
2022-07-28T10:05:53.478Z,0.10
2022-07-28T10:08:20.317Z,0.20
2022-07-28T10:11:13.682Z,0.20
2022-07-28T10:14:05.204Z,0.10
2022-07-28T10:16:44.925Z,0.13
2022-07-28T10:22:40.930Z,0.30
2022-07-28T10:25:13.124Z,0.20
2022-07-28T10:27:47.117Z,0.20
2022-07-28T10:30:17.346Z,0.20
2022-07-28T10:32:47.901Z,0.20
2022-07-28T10:35:19.065Z,0.20
2022-07-28T10:37:56.747Z,0.20
2022-07-28T10:40:31.475Z,0.20
2022-07-28T10:43:01.987Z,0.10
2022-07-28T10:45:55.130Z,0.10
2022-07-28T10:48:09.347Z,0.20
2022-07-28T10:50:42.330Z,0.10
2022-07-28T10:53:13.228Z,0.20
2022-07-28T10:56:33.798Z,0.20
2022-07-28T10:59:14.296Z,0.20
2022-07-28T11:01:50.194Z,0.20
2022-07-28T11:04:48.914Z,0.20
2022-07-28T11:07:19.543Z,0.20
2022-07-28T11:12:51.818Z,0.10
2022-07-28T11:15:35.883Z,0.10
2022-07-28T11:18:11.226Z,0.13
2022-07-28T11:21:00.545Z,0.20
2022-07-28T11:23:46.732Z,0.20
2022-07-28T11:26:28.461Z,0.20
2022-07-28T11:29:11.422Z,0.27
2022-07-28T11:31:50.727Z,0.10
2022-07-28T11:34:22.661Z,0.20
2022-07-28T11:37:03.989Z,0.20
2022-07-28T11:39:42.974Z,0.20
2022-07-28T11:42:28.302Z,0.18
2022-07-28T11:44:58.946Z,0.20
2022-07-28T11:47:32.716Z,0.20
2022-07-28T11:50:16.974Z,0.10
2022-07-28T11:53:00.151Z,0.20
2022-07-28T11:55:55.294Z,0.20
2022-07-28T11:58:07.071Z,0.35
2022-07-28T12:00:41.125Z,0.20
2022-07-28T12:03:15.794Z,0.20
2022-07-28T12:05:51.389Z,0.20
2022-07-28T12:08:21.860Z,0.20
2022-07-28T12:10:54.892Z,0.20
2022-07-28T12:13:28.898Z,0.20
2022-07-28T12:16:02.251Z,0.20
2022-07-28T12:18:33.205Z,0.20
2022-07-28T12:21:08.492Z,0.20
2022-07-28T12:23:49.277Z,0.20
2022-07-28T12:26:14.385Z,0.20
2022-07-28T12:28:47.213Z,0.20
2022-07-28T12:31:20.231Z,0.28
2022-07-28T12:33:53.671Z,0.20
2022-07-28T12:36:24.972Z,0.20
2022-07-28T12:38:54.870Z,0.10
2022-07-28T12:41:25.156Z,0.20
2022-07-28T12:43:56.833Z,0.20
2022-07-28T12:46:27.437Z,0.20
2022-07-28T12:48:59.610Z,0.20
2022-07-28T12:51:44.190Z,0.20
2022-07-28T12:54:15.594Z,0.20
2022-07-28T12:56:50.457Z,0.20
2022-07-28T12:59:20.998Z,0.10
2022-07-28T13:01:57.948Z,0.17
2022-07-28T13:04:49.103Z,0.20
2022-07-28T13:07:28.584Z,0.20
2022-07-28T13:10:11.550Z,0.20
2022-07-28T13:12:44.533Z,0.30
2022-07-28T13:15:18.707Z,0.30
2022-07-28T13:17:54.082Z,0.40
2022-07-28T13:20:27.073Z,0.37
2022-07-28T13:22:58.126Z,0.30
2022-07-28T13:25:28.124Z,0.30
2022-07-28T13:28:01.050Z,0.47
2022-07-28T13:30:31.223Z,0.40
2022-07-28T13:33:02.331Z,0.40
2022-07-28T13:35:34.195Z,0.40
2022-07-28T13:38:06.350Z,0.40
2022-07-28T13:40:56.975Z,0.50
2022-07-28T13:43:36.015Z,0.50
2022-07-28T13:46:00.236Z,0.40
2022-07-28T13:48:35.762Z,0.30
2022-07-28T13:51:12.280Z,0.30
2022-07-28T13:53:44.042Z,0.40
2022-07-28T13:56:13.996Z,0.30
2022-07-28T13:58:46.795Z,0.30
2022-07-28T14:01:19.130Z,0.30
2022-07-28T14:11:38.830Z,0.38
2022-07-28T14:14:24.352Z,0.40
2022-07-28T15:19:21.478Z,0.30
2022-07-28T15:22:40.799Z,0.30
2022-07-28T15:32:09.023Z,0.28
2022-07-28T15:34:41.198Z,0.20
2022-07-28T15:37:47.935Z,0.20
2022-07-28T15:49:38.576Z,0.20
2022-07-28T16:14:15.793Z,0.10
2022-07-28T16:17:11.460Z,0.20
2022-07-28T16:19:50.721Z,0.20
2022-07-28T16:22:27.518Z,0.20
2022-07-28T16:25:08.389Z,0.20
2022-07-28T16:27:42.126Z,0.30
2022-07-28T16:30:25.563Z,0.13
2022-07-28T16:32:56.089Z,0.20
2022-07-28T16:35:59.104Z,0.47
2022-07-28T16:38:32.513Z,0.20
2022-07-28T16:45:42.902Z,0.20
2022-07-28T16:48:14.643Z,0.30
2022-07-28T16:51:01.622Z,0.20
2022-07-28T16:53:32.459Z,0.20
2022-07-28T17:17:53.745Z,0.20
2022-07-28T17:20:35.694Z,0.20
2022-07-28T17:52:07.486Z,0.30
2022-07-28T17:58:28.061Z,0.30
2022-07-28T18:04:31.710Z,0.37
2022-07-28T18:15:49.775Z,0.40
2022-07-28T18:33:00.455Z,0.50
2022-07-28T18:46:05.095Z,0.50
2022-07-28T19:06:17.992Z,0.75
2022-07-28T19:16:26.554Z,0.80
2022-07-28T19:19:00.527Z,0.62
2022-07-28T19:32:04.438Z,0.57
2022-07-28T19:34:34.655Z,0.40
2022-07-28T20:11:07.067Z,0.20
2022-07-28T20:13:38.863Z,0.30
2022-07-28T20:16:19.407Z,0.20
2022-07-28T20:18:52.994Z,0.20
2022-07-28T20:21:38.350Z,0.20
2022-07-28T20:24:13.939Z,0.20
2022-07-28T20:26:47.631Z,0.20
2022-07-28T20:29:24.275Z,0.20
2022-07-28T20:31:54.008Z,0.20
2022-07-28T20:34:29.941Z,0.20
2022-07-28T20:37:03.754Z,0.20
2022-07-28T20:39:44.908Z,0.20
2022-07-28T20:42:13.298Z,0.10
2022-07-28T20:44:47.409Z,0.20
2022-07-28T20:47:24.025Z,0.20
2022-07-28T20:49:56.029Z,0.20
2022-07-28T20:52:26.078Z,0.20
2022-07-28T20:55:11.519Z,0.20
2022-07-28T20:57:42.859Z,0.20
2022-07-28T21:00:15.909Z,0.20
2022-07-28T21:05:37.449Z,0.27
2022-07-28T21:08:17.164Z,0.30
2022-07-28T21:10:41.801Z,0.30
2022-07-28T21:13:11.672Z,0.20
2022-07-28T21:15:42.954Z,0.30
2022-07-28T21:18:13.092Z,0.40
2022-07-28T21:21:54.353Z,0.37
2022-07-28T21:24:43.184Z,0.30
2022-07-28T21:30:32.609Z,0.30
2022-07-28T21:33:10.715Z,0.30
2022-07-28T21:36:02.451Z,0.42
2022-07-28T21:38:42.356Z,0.20
2022-07-28T21:41:13.146Z,0.28
2022-07-28T21:43:48.694Z,0.30
2022-07-28T21:46:31.731Z,0.30
2022-07-28T21:49:13.716Z,0.20
2022-07-28T21:52:00.011Z,0.37
2022-07-28T21:55:07.714Z,0.20
2022-07-28T21:58:14.633Z,0.20
2022-07-28T22:04:18.749Z,0.20
2022-07-28T22:07:26.706Z,0.20
2022-07-28T22:10:09.820Z,0.35
